sensor_id;sensor_type;location;lat;lon;timestamp;pressure;altitude;pressure_sealevel;temperature;humidity
21361;BME280;10839;43.206;23.550;2023-05-02T00:01:58;97468.50;;;12.42;96.47
21361;BME280;10839;43.206;23.550;2023-05-02T00:04:23;97464.13;;;12.41;96.40
21361;BME280;10839;43.206;23.550;2023-05-02T00:06:52;97478.66;;;12.40;96.64
21361;BME280;10839;43.206;23.550;2023-05-02T00:09:19;97458.03;;;12.67;93.31
21361;BME280;10839;43.206;23.550;2023-05-02T00:11:45;97464.19;;;12.54;94.83
21361;BME280;10839;43.206;23.550;2023-05-02T00:14:11;97462.63;;;12.32;97.50
21361;BME280;10839;43.206;23.550;2023-05-02T00:16:37;97465.66;;;12.23;98.70
21361;BME280;10839;43.206;23.550;2023-05-02T00:19:03;97462.72;;;12.18;98.35
21361;BME280;10839;43.206;23.550;2023-05-02T00:21:29;97468.94;;;12.18;99.29
21361;BME280;10839;43.206;23.550;2023-05-02T00:23:55;97470.22;;;12.22;99.27
21361;BME280;10839;43.206;23.550;2023-05-02T00:26:24;97468.59;;;12.28;98.59
21361;BME280;10839;43.206;23.550;2023-05-02T00:28:51;97465.81;;;12.15;99.04
21361;BME280;10839;43.206;23.550;2023-05-02T00:31:17;97464.56;;;12.11;99.35
21361;BME280;10839;43.206;23.550;2023-05-02T00:33:43;97474.31;;;12.12;99.50
21361;BME280;10839;43.206;23.550;2023-05-02T00:36:15;97476.88;;;12.26;98.39
21361;BME280;10839;43.206;23.550;2023-05-02T00:38:41;97469.41;;;12.22;98.16
21361;BME280;10839;43.206;23.550;2023-05-02T00:41:07;97474.69;;;12.09;99.49
21361;BME280;10839;43.206;23.550;2023-05-02T00:43:33;97504.72;;;11.99;100.00
21361;BME280;10839;43.206;23.550;2023-05-02T00:45:58;97478.34;;;12.01;100.00
21361;BME280;10839;43.206;23.550;2023-05-02T00:48:25;97483.09;;;12.20;98.58
21361;BME280;10839;43.206;23.550;2023-05-02T00:50:51;97485.53;;;12.15;99.06
21361;BME280;10839;43.206;23.550;2023-05-02T00:53:17;97479.66;;;12.05;99.87
21361;BME280;10839;43.206;23.550;2023-05-02T00:55:43;97496.88;;;12.04;99.97
21361;BME280;10839;43.206;23.550;2023-05-02T00:58:11;97484.44;;;11.82;100.00
21361;BME280;10839;43.206;23.550;2023-05-02T01:06:23;97481.50;;;11.77;100.00
21361;BME280;10839;43.206;23.550;2023-05-02T01:09:02;97483.16;;;11.78;100.00
21361;BME280;10839;43.206;23.550;2023-05-02T01:11:47;97476.09;;;11.77;100.00
21361;BME280;10839;43.206;23.550;2023-05-02T01:14:17;97480.66;;;11.77;100.00
21361;BME280;10839;43.206;23.550;2023-05-02T01:16:45;97481.50;;;11.77;100.00
21361;BME280;10839;43.206;23.550;2023-05-02T01:19:21;97478.16;;;11.75;100.00
21361;BME280;10839;43.206;23.550;2023-05-02T01:21:51;97474.41;;;11.76;100.00
21361;BME280;10839;43.206;23.550;2023-05-02T01:24:25;97479.69;;;11.84;100.00
21361;BME280;10839;43.206;23.550;2023-05-02T01:27:10;97477.00;;;11.84;100.00
21361;BME280;10839;43.206;23.550;2023-05-02T01:29:40;97481.22;;;11.93;100.00
21361;BME280;10839;43.206;23.550;2023-05-02T01:32:08;97471.41;;;11.86;100.00
21361;BME280;10839;43.206;23.550;2023-05-02T01:34:37;97487.88;;;11.97;99.97
21361;BME280;10839;43.206;23.550;2023-05-02T01:37:05;97479.53;;;11.92;100.00
21361;BME280;10839;43.206;23.550;2023-05-02T01:39:33;97486.19;;;11.69;100.00
21361;BME280;10839;43.206;23.550;2023-05-02T01:42:02;97478.00;;;11.62;100.00
21361;BME280;10839;43.206;23.550;2023-05-02T01:44:31;97476.34;;;11.61;100.00
21361;BME280;10839;43.206;23.550;2023-05-02T01:46:59;97483.91;;;11.51;100.00
21361;BME280;10839;43.206;23.550;2023-05-02T01:49:28;97480.13;;;11.45;100.00
21361;BME280;10839;43.206;23.550;2023-05-02T01:52:01;97477.81;;;11.42;100.00
21361;BME280;10839;43.206;23.550;2023-05-02T01:54:29;97485.00;;;11.56;100.00
21361;BME280;10839;43.206;23.550;2023-05-02T01:56:58;97479.59;;;11.35;100.00
21361;BME280;10839;43.206;23.550;2023-05-02T01:59:27;97480.19;;;11.52;100.00
21361;BME280;10839;43.206;23.550;2023-05-02T02:01:55;97486.22;;;11.54;100.00
21361;BME280;10839;43.206;23.550;2023-05-02T02:04:22;97484.06;;;11.64;100.00
21361;BME280;10839;43.206;23.550;2023-05-02T02:06:54;97492.25;;;11.56;100.00
21361;BME280;10839;43.206;23.550;2023-05-02T02:09:24;97476.72;;;11.58;100.00
21361;BME280;10839;43.206;23.550;2023-05-02T02:12:01;97475.91;;;11.57;100.00
21361;BME280;10839;43.206;23.550;2023-05-02T02:14:37;97487.75;;;11.63;100.00
21361;BME280;10839;43.206;23.550;2023-05-02T02:17:11;97482.22;;;11.50;100.00
21361;BME280;10839;43.206;23.550;2023-05-02T02:19:40;97478.63;;;11.43;100.00
21361;BME280;10839;43.206;23.550;2023-05-02T02:22:07;97476.06;;;11.35;100.00
21361;BME280;10839;43.206;23.550;2023-05-02T02:24:38;97471.06;;;11.32;100.00
21361;BME280;10839;43.206;23.550;2023-05-02T02:27:05;97468.63;;;11.37;100.00
21361;BME280;10839;43.206;23.550;2023-05-02T02:29:32;97465.69;;;11.32;100.00
21361;BME280;10839;43.206;23.550;2023-05-02T02:31:58;97453.75;;;11.20;100.00
21361;BME280;10839;43.206;23.550;2023-05-02T02:34:24;97466.06;;;11.29;100.00
21361;BME280;10839;43.206;23.550;2023-05-02T02:37:07;97483.50;;;11.12;100.00
21361;BME280;10839;43.206;23.550;2023-05-02T02:42:27;97484.91;;;11.08;100.00
21361;BME280;10839;43.206;23.550;2023-05-02T02:45:26;97488.28;;;11.16;100.00
21361;BME280;10839;43.206;23.550;2023-05-02T02:54:13;97481.31;;;11.22;100.00
21361;BME280;10839;43.206;23.550;2023-05-02T02:56:46;97483.22;;;11.07;100.00
21361;BME280;10839;43.206;23.550;2023-05-02T02:59:19;97484.53;;;11.11;100.00
21361;BME280;10839;43.206;23.550;2023-05-02T03:01:55;97489.91;;;11.11;100.00
21361;BME280;10839;43.206;23.550;2023-05-02T03:04:25;97483.22;;;11.07;100.00
21361;BME280;10839;43.206;23.550;2023-05-02T03:06:52;97491.56;;;11.12;100.00
21361;BME280;10839;43.206;23.550;2023-05-02T03:09:21;97485.56;;;11.31;100.00
21361;BME280;10839;43.206;23.550;2023-05-02T03:11:49;97490.50;;;11.27;100.00
21361;BME280;10839;43.206;23.550;2023-05-02T03:14:16;97502.56;;;11.31;100.00
21361;BME280;10839;43.206;23.550;2023-05-02T03:16:42;97496.50;;;11.44;100.00
21361;BME280;10839;43.206;23.550;2023-05-02T03:19:13;97501.50;;;11.47;100.00
21361;BME280;10839;43.206;23.550;2023-05-02T03:21:39;97515.38;;;11.65;100.00
21361;BME280;10839;43.206;23.550;2023-05-02T03:24:16;97507.94;;;11.67;100.00
21361;BME280;10839;43.206;23.550;2023-05-02T03:26:42;97504.97;;;11.62;100.00
21361;BME280;10839;43.206;23.550;2023-05-02T03:29:11;97496.22;;;11.60;100.00
21361;BME280;10839;43.206;23.550;2023-05-02T03:31:40;97502.09;;;11.64;99.75
21361;BME280;10839;43.206;23.550;2023-05-02T03:34:06;97509.72;;;12.02;97.19
21361;BME280;10839;43.206;23.550;2023-05-02T03:36:33;97507.69;;;12.38;94.15
21361;BME280;10839;43.206;23.550;2023-05-02T03:38:58;97512.00;;;12.05;95.94
21361;BME280;10839;43.206;23.550;2023-05-02T03:41:25;97514.16;;;12.16;95.54
21361;BME280;10839;43.206;23.550;2023-05-02T03:43:58;97527.63;;;12.37;94.42
21361;BME280;10839;43.206;23.550;2023-05-02T03:46:25;97514.69;;;12.33;94.13
21361;BME280;10839;43.206;23.550;2023-05-02T03:48:52;97510.63;;;13.12;88.48
21361;BME280;10839;43.206;23.550;2023-05-02T03:51:18;97513.72;;;14.08;81.61
21361;BME280;10839;43.206;23.550;2023-05-02T03:53:49;97518.53;;;14.52;78.86
21361;BME280;10839;43.206;23.550;2023-05-02T03:56:17;97502.06;;;14.53;78.38
21361;BME280;10839;43.206;23.550;2023-05-02T03:58:54;97521.38;;;14.83;75.96
21361;BME280;10839;43.206;23.550;2023-05-02T04:01:23;97513.63;;;14.99;74.12
21361;BME280;10839;43.206;23.550;2023-05-02T04:03:51;97530.25;;;15.98;71.17
21361;BME280;10839;43.206;23.550;2023-05-02T04:06:20;97518.31;;;16.30;68.05
21361;BME280;10839;43.206;23.550;2023-05-02T04:08:52;97533.28;;;17.24;62.94
21361;BME280;10839;43.206;23.550;2023-05-02T04:11:18;97534.78;;;17.38;62.71
21361;BME280;10839;43.206;23.550;2023-05-02T04:13:45;97527.00;;;17.60;60.75
21361;BME280;10839;43.206;23.550;2023-05-02T04:16:11;97524.53;;;18.00;59.91
21361;BME280;10839;43.206;23.550;2023-05-02T04:18:38;97531.31;;;18.09;58.44
21361;BME280;10839;43.206;23.550;2023-05-02T04:21:07;97528.91;;;18.01;58.71
21361;BME280;10839;43.206;23.550;2023-05-02T04:23:36;97533.78;;;18.40;56.56
21361;BME280;10839;43.206;23.550;2023-05-02T04:26:03;97529.63;;;19.06;54.27
21361;BME280;10839;43.206;23.550;2023-05-02T04:28:36;97522.34;;;17.90;57.80
21361;BME280;10839;43.206;23.550;2023-05-02T04:31:03;97543.38;;;19.11;55.13
21361;BME280;10839;43.206;23.550;2023-05-02T04:33:30;97535.25;;;19.63;52.99
21361;BME280;10839;43.206;23.550;2023-05-02T04:35:57;97534.91;;;21.15;49.08
21361;BME280;10839;43.206;23.550;2023-05-02T04:38:24;97540.56;;;20.25;50.01
21361;BME280;10839;43.206;23.550;2023-05-02T04:40:50;97542.91;;;19.38;53.58
21361;BME280;10839;43.206;23.550;2023-05-02T04:43:26;97533.19;;;19.30;53.24
21361;BME280;10839;43.206;23.550;2023-05-02T04:46:00;97534.34;;;19.46;52.78
21361;BME280;10839;43.206;23.550;2023-05-02T04:48:32;97539.19;;;19.55;52.99
21361;BME280;10839;43.206;23.550;2023-05-02T04:50:58;97543.53;;;18.82;53.73
21361;BME280;10839;43.206;23.550;2023-05-02T04:53:25;97552.34;;;19.86;51.57
21361;BME280;10839;43.206;23.550;2023-05-02T04:55:52;97540.44;;;19.36;52.67
21361;BME280;10839;43.206;23.550;2023-05-02T04:58:18;97544.25;;;18.66;54.69
21361;BME280;10839;43.206;23.550;2023-05-02T05:00:48;97534.13;;;20.03;51.34
21361;BME280;10839;43.206;23.550;2023-05-02T05:03:14;97542.47;;;20.91;48.83
21361;BME280;10839;43.206;23.550;2023-05-02T05:05:40;97550.53;;;20.65;48.62
21361;BME280;10839;43.206;23.550;2023-05-02T05:08:11;97529.41;;;19.99;50.72
21361;BME280;10839;43.206;23.550;2023-05-02T05:10:37;97542.56;;;20.80;48.45
21361;BME280;10839;43.206;23.550;2023-05-02T05:13:06;97539.78;;;19.85;50.93
21361;BME280;10839;43.206;23.550;2023-05-02T05:15:33;97535.22;;;18.77;54.92
21361;BME280;10839;43.206;23.550;2023-05-02T05:18:00;97534.97;;;20.49;50.03
21361;BME280;10839;43.206;23.550;2023-05-02T05:20:27;97551.09;;;18.57;55.50
21361;BME280;10839;43.206;23.550;2023-05-02T05:22:56;97547.69;;;18.32;56.79
21361;BME280;10839;43.206;23.550;2023-05-02T05:25:27;97534.63;;;20.62;50.93
21361;BME280;10839;43.206;23.550;2023-05-02T05:27:54;97541.72;;;20.29;51.90
21361;BME280;10839;43.206;23.550;2023-05-02T05:30:21;97554.44;;;21.40;48.96
21361;BME280;10839;43.206;23.550;2023-05-02T05:32:47;97551.84;;;20.95;49.19
21361;BME280;10839;43.206;23.550;2023-05-02T05:35:12;97563.47;;;20.53;49.74
21361;BME280;10839;43.206;23.550;2023-05-02T05:37:39;97547.31;;;21.39;48.62
21361;BME280;10839;43.206;23.550;2023-05-02T05:40:09;97577.97;;;21.58;47.15
21361;BME280;10839;43.206;23.550;2023-05-02T05:42:36;97571.25;;;22.13;45.81
21361;BME280;10839;43.206;23.550;2023-05-02T05:45:08;97553.88;;;22.29;45.98
21361;BME280;10839;43.206;23.550;2023-05-02T05:47:34;97556.19;;;21.68;48.10
21361;BME280;10839;43.206;23.550;2023-05-02T05:50:00;97554.81;;;22.13;46.20
21361;BME280;10839;43.206;23.550;2023-05-02T05:52:28;97564.97;;;21.91;46.02
21361;BME280;10839;43.206;23.550;2023-05-02T05:54:57;97576.75;;;25.13;39.84
21361;BME280;10839;43.206;23.550;2023-05-02T05:57:26;97564.91;;;23.86;42.25
21361;BME280;10839;43.206;23.550;2023-05-02T05:59:54;97555.56;;;23.77;42.75
21361;BME280;10839;43.206;23.550;2023-05-02T06:02:20;97571.25;;;24.93;40.74
21361;BME280;10839;43.206;23.550;2023-05-02T06:04:47;97564.09;;;23.29;42.91
21361;BME280;10839;43.206;23.550;2023-05-02T06:07:15;97569.25;;;23.67;42.50
21361;BME280;10839;43.206;23.550;2023-05-02T06:09:41;97566.63;;;23.92;41.92
21361;BME280;10839;43.206;23.550;2023-05-02T06:12:07;97572.78;;;24.24;41.39
21361;BME280;10839;43.206;23.550;2023-05-02T06:14:37;97571.13;;;24.18;41.62
21361;BME280;10839;43.206;23.550;2023-05-02T06:17:03;97563.22;;;24.62;41.22
21361;BME280;10839;43.206;23.550;2023-05-02T06:19:29;97566.72;;;25.73;39.41
21361;BME280;10839;43.206;23.550;2023-05-02T06:21:55;97560.47;;;26.65;37.63
21361;BME280;10839;43.206;23.550;2023-05-02T06:24:21;97565.06;;;23.54;42.23
21361;BME280;10839;43.206;23.550;2023-05-02T06:26:46;97573.59;;;23.58;43.06
21361;BME280;10839;43.206;23.550;2023-05-02T06:29:12;97572.09;;;23.87;41.81
21361;BME280;10839;43.206;23.550;2023-05-02T06:31:38;97573.03;;;23.56;43.23
21361;BME280;10839;43.206;23.550;2023-05-02T06:34:04;97572.34;;;24.97;40.14
21361;BME280;10839;43.206;23.550;2023-05-02T06:36:30;97569.34;;;22.99;42.40
21361;BME280;10839;43.206;23.550;2023-05-02T06:38:56;97571.13;;;24.23;40.25
21361;BME280;10839;43.206;23.550;2023-05-02T06:41:22;97565.97;;;22.87;42.48
21361;BME280;10839;43.206;23.550;2023-05-02T06:43:48;97567.38;;;25.09;37.78
21361;BME280;10839;43.206;23.550;2023-05-02T06:46:14;97574.16;;;24.17;39.10
21361;BME280;10839;43.206;23.550;2023-05-02T06:48:40;97565.06;;;24.16;39.25
21361;BME280;10839;43.206;23.550;2023-05-02T06:51:06;97573.41;;;23.74;39.12
21361;BME280;10839;43.206;23.550;2023-05-02T06:53:31;97565.16;;;25.47;36.01
21361;BME280;10839;43.206;23.550;2023-05-02T06:55:58;97580.88;;;23.89;37.80
21361;BME280;10839;43.206;23.550;2023-05-02T06:58:23;97567.41;;;23.87;38.32
21361;BME280;10839;43.206;23.550;2023-05-02T07:00:49;97567.81;;;24.21;36.26
21361;BME280;10839;43.206;23.550;2023-05-02T07:03:15;97570.53;;;23.13;38.65
21361;BME280;10839;43.206;23.550;2023-05-02T07:05:41;97569.81;;;23.69;38.22
21361;BME280;10839;43.206;23.550;2023-05-02T07:08:07;97557.19;;;23.73;37.64
21361;BME280;10839;43.206;23.550;2023-05-02T07:10:34;97561.31;;;25.07;36.05
21361;BME280;10839;43.206;23.550;2023-05-02T07:12:59;97561.25;;;23.19;38.04
21361;BME280;10839;43.206;23.550;2023-05-02T07:15:26;97557.63;;;22.18;39.71
21361;BME280;10839;43.206;23.550;2023-05-02T07:17:52;97551.50;;;23.01;39.07
21361;BME280;10839;43.206;23.550;2023-05-02T07:20:18;97567.56;;;23.61;37.57
21361;BME280;10839;43.206;23.550;2023-05-02T07:22:44;97561.16;;;23.04;38.37
21361;BME280;10839;43.206;23.550;2023-05-02T07:25:10;97561.19;;;22.45;39.17
21361;BME280;10839;43.206;23.550;2023-05-02T07:27:36;97558.13;;;22.68;38.98
21361;BME280;10839;43.206;23.550;2023-05-02T07:30:02;97555.44;;;23.10;38.31
21361;BME280;10839;43.206;23.550;2023-05-02T07:32:28;97562.94;;;24.48;35.19
21361;BME280;10839;43.206;23.550;2023-05-02T07:34:54;97569.06;;;24.75;34.73
21361;BME280;10839;43.206;23.550;2023-05-02T07:37:21;97555.69;;;24.07;35.22
21361;BME280;10839;43.206;23.550;2023-05-02T07:39:47;97550.41;;;22.97;36.47
21361;BME280;10839;43.206;23.550;2023-05-02T07:42:13;97562.44;;;22.59;37.38
21361;BME280;10839;43.206;23.550;2023-05-02T07:44:38;97555.13;;;22.43;36.78
21361;BME280;10839;43.206;23.550;2023-05-02T07:47:04;97553.34;;;22.86;35.96
21361;BME280;10839;43.206;23.550;2023-05-02T07:49:31;97563.03;;;23.35;33.60
21361;BME280;10839;43.206;23.550;2023-05-02T07:51:57;97549.91;;;24.04;33.04
21361;BME280;10839;43.206;23.550;2023-05-02T07:54:23;97558.50;;;24.52;32.08
21361;BME280;10839;43.206;23.550;2023-05-02T07:56:51;97557.75;;;24.72;31.62
21361;BME280;10839;43.206;23.550;2023-05-02T07:59:17;97548.47;;;23.96;31.87
21361;BME280;10839;43.206;23.550;2023-05-02T08:01:42;97550.16;;;23.04;33.16
21361;BME280;10839;43.206;23.550;2023-05-02T08:04:10;97563.75;;;23.67;32.13
21361;BME280;10839;43.206;23.550;2023-05-02T08:06:37;97557.78;;;23.85;32.40
21361;BME280;10839;43.206;23.550;2023-05-02T08:09:03;97554.88;;;24.17;31.28
21361;BME280;10839;43.206;23.550;2023-05-02T08:11:29;97559.44;;;22.98;33.13
21361;BME280;10839;43.206;23.550;2023-05-02T08:13:55;97543.88;;;22.71;32.97
21361;BME280;10839;43.206;23.550;2023-05-02T08:16:21;97548.34;;;23.19;32.70
21361;BME280;10839;43.206;23.550;2023-05-02T08:18:47;97569.22;;;23.62;32.33
21361;BME280;10839;43.206;23.550;2023-05-02T08:21:13;97549.44;;;23.60;32.11
21361;BME280;10839;43.206;23.550;2023-05-02T08:23:40;97550.59;;;24.91;31.09
21361;BME280;10839;43.206;23.550;2023-05-02T08:26:06;97555.28;;;24.80;30.75
21361;BME280;10839;43.206;23.550;2023-05-02T08:28:35;97555.16;;;24.10;31.21
21361;BME280;10839;43.206;23.550;2023-05-02T08:31:00;97549.78;;;24.75;30.45
21361;BME280;10839;43.206;23.550;2023-05-02T08:33:26;97555.66;;;23.04;31.81
21361;BME280;10839;43.206;23.550;2023-05-02T08:35:52;97535.75;;;23.75;31.66
21361;BME280;10839;43.206;23.550;2023-05-02T08:38:18;97549.53;;;23.28;31.97
21361;BME280;10839;43.206;23.550;2023-05-02T08:40:44;97539.22;;;24.12;31.66
21361;BME280;10839;43.206;23.550;2023-05-02T08:43:11;97546.31;;;24.03;31.15
21361;BME280;10839;43.206;23.550;2023-05-02T08:45:42;97557.50;;;23.30;31.79
21361;BME280;10839;43.206;23.550;2023-05-02T08:48:10;97554.13;;;24.66;30.35
21361;BME280;10839;43.206;23.550;2023-05-02T08:53:08;97530.13;;;23.45;32.10
21361;BME280;10839;43.206;23.550;2023-05-02T08:55:36;97525.81;;;23.64;31.65
21361;BME280;10839;43.206;23.550;2023-05-02T08:58:05;97528.59;;;23.74;30.60
21361;BME280;10839;43.206;23.550;2023-05-02T09:00:32;97536.78;;;23.59;30.93
21361;BME280;10839;43.206;23.550;2023-05-02T09:03:06;97533.28;;;23.78;30.52
21361;BME280;10839;43.206;23.550;2023-05-02T09:05:40;97541.28;;;23.80;29.80
21361;BME280;10839;43.206;23.550;2023-05-02T09:08:07;97546.78;;;22.92;31.32
21361;BME280;10839;43.206;23.550;2023-05-02T09:10:34;97528.22;;;24.37;29.88
21361;BME280;10839;43.206;23.550;2023-05-02T09:13:32;97529.47;;;23.84;30.08
21361;BME280;10839;43.206;23.550;2023-05-02T09:16:14;97526.06;;;24.59;28.58
21361;BME280;10839;43.206;23.550;2023-05-02T09:18:48;97534.56;;;23.61;29.57
21361;BME280;10839;43.206;23.550;2023-05-02T09:21:17;97530.75;;;23.62;29.94
21361;BME280;10839;43.206;23.550;2023-05-02T09:23:56;97528.09;;;23.87;29.85
21361;BME280;10839;43.206;23.550;2023-05-02T09:26:27;97530.88;;;23.92;29.49
21361;BME280;10839;43.206;23.550;2023-05-02T09:29:00;97525.25;;;23.15;30.22
21361;BME280;10839;43.206;23.550;2023-05-02T09:31:34;97533.03;;;23.80;29.67
21361;BME280;10839;43.206;23.550;2023-05-02T09:34:11;97510.22;;;23.89;29.61
21361;BME280;10839;43.206;23.550;2023-05-02T09:36:42;97522.53;;;23.67;29.92
21361;BME280;10839;43.206;23.550;2023-05-02T09:39:11;97529.84;;;23.05;30.57
21361;BME280;10839;43.206;23.550;2023-05-02T09:41:42;97508.25;;;23.75;29.75
21361;BME280;10839;43.206;23.550;2023-05-02T09:44:13;97512.84;;;23.08;29.93
21361;BME280;10839;43.206;23.550;2023-05-02T09:46:41;97505.50;;;23.70;29.74
21361;BME280;10839;43.206;23.550;2023-05-02T09:49:07;97514.38;;;22.89;30.00
21361;BME280;10839;43.206;23.550;2023-05-02T09:51:36;97506.31;;;23.14;29.29
21361;BME280;10839;43.206;23.550;2023-05-02T09:54:02;97502.09;;;23.48;29.06
21361;BME280;10839;43.206;23.550;2023-05-02T09:56:29;97502.38;;;23.05;29.47
21361;BME280;10839;43.206;23.550;2023-05-02T09:59:14;97498.06;;;23.65;28.83
21361;BME280;10839;43.206;23.550;2023-05-02T10:01:41;97504.50;;;24.01;29.03
21361;BME280;10839;43.206;23.550;2023-05-02T10:04:12;97504.31;;;23.56;28.91
21361;BME280;10839;43.206;23.550;2023-05-02T10:06:44;97504.75;;;23.28;29.40
21361;BME280;10839;43.206;23.550;2023-05-02T10:09:13;97485.84;;;22.95;29.42
21361;BME280;10839;43.206;23.550;2023-05-02T10:11:44;97502.44;;;22.73;29.49
21361;BME280;10839;43.206;23.550;2023-05-02T10:14:11;97490.78;;;23.34;28.46
21361;BME280;10839;43.206;23.550;2023-05-02T10:16:58;97510.88;;;23.40;28.55
21361;BME280;10839;43.206;23.550;2023-05-02T10:20:04;97492.50;;;22.62;29.33
21361;BME280;10839;43.206;23.550;2023-05-02T10:22:33;97485.78;;;22.85;29.20
21361;BME280;10839;43.206;23.550;2023-05-02T10:24:59;97483.13;;;23.46;28.89
21361;BME280;10839;43.206;23.550;2023-05-02T10:27:31;97483.72;;;23.02;28.50
21361;BME280;10839;43.206;23.550;2023-05-02T10:29:58;97481.91;;;23.22;28.76
21361;BME280;10839;43.206;23.550;2023-05-02T10:32:28;97506.03;;;23.15;28.86
21361;BME280;10839;43.206;23.550;2023-05-02T10:34:55;97475.66;;;23.32;28.85
21361;BME280;10839;43.206;23.550;2023-05-02T10:37:24;97481.06;;;23.22;28.65
21361;BME280;10839;43.206;23.550;2023-05-02T10:39:51;97497.34;;;23.28;27.76
21361;BME280;10839;43.206;23.550;2023-05-02T10:42:18;97473.25;;;23.45;27.78
21361;BME280;10839;43.206;23.550;2023-05-02T10:44:45;97486.13;;;23.35;28.43
21361;BME280;10839;43.206;23.550;2023-05-02T10:47:25;97482.25;;;23.36;27.41
21361;BME280;10839;43.206;23.550;2023-05-02T10:49:58;97475.41;;;23.38;26.94
21361;BME280;10839;43.206;23.550;2023-05-02T11:00:29;97476.28;;;22.97;27.14
21361;BME280;10839;43.206;23.550;2023-05-02T11:02:55;97467.25;;;23.07;28.04
21361;BME280;10839;43.206;23.550;2023-05-02T11:05:22;97474.00;;;23.36;28.01
21361;BME280;10839;43.206;23.550;2023-05-02T11:10:42;97476.16;;;23.24;28.14
21361;BME280;10839;43.206;23.550;2023-05-02T11:13:10;97464.81;;;23.62;27.29
21361;BME280;10839;43.206;23.550;2023-05-02T11:18:11;97464.25;;;23.08;27.46
21361;BME280;10839;43.206;23.550;2023-05-02T11:20:39;97466.44;;;23.63;26.62
21361;BME280;10839;43.206;23.550;2023-05-02T11:25:58;97464.81;;;23.62;27.54
21361;BME280;10839;43.206;23.550;2023-05-02T11:31:02;97478.13;;;23.33;28.06
21361;BME280;10839;43.206;23.550;2023-05-02T11:33:28;97458.66;;;23.35;27.94
21361;BME280;10839;43.206;23.550;2023-05-02T11:35:54;97463.81;;;22.85;28.64
21361;BME280;10839;43.206;23.550;2023-05-02T11:38:23;97460.75;;;23.23;28.71
21361;BME280;10839;43.206;23.550;2023-05-02T11:40:51;97448.56;;;23.50;27.98
21361;BME280;10839;43.206;23.550;2023-05-02T11:43:18;97449.13;;;23.62;27.09
21361;BME280;10839;43.206;23.550;2023-05-02T11:45:46;97442.81;;;23.62;27.53
21361;BME280;10839;43.206;23.550;2023-05-02T11:48:15;97440.53;;;23.34;27.90
21361;BME280;10839;43.206;23.550;2023-05-02T11:50:47;97439.66;;;23.28;28.04
21361;BME280;10839;43.206;23.550;2023-05-02T11:53:15;97432.81;;;23.36;28.46
21361;BME280;10839;43.206;23.550;2023-05-02T11:55:46;97448.84;;;23.59;27.87
21361;BME280;10839;43.206;23.550;2023-05-02T11:58:14;97439.94;;;23.27;27.28
21361;BME280;10839;43.206;23.550;2023-05-02T12:00:42;97429.63;;;23.64;27.11
21361;BME280;10839;43.206;23.550;2023-05-02T12:03:32;97437.22;;;23.32;27.54
21361;BME280;10839;43.206;23.550;2023-05-02T12:06:27;97432.81;;;23.36;28.03
21361;BME280;10839;43.206;23.550;2023-05-02T12:09:05;97428.44;;;23.40;27.85
21361;BME280;10839;43.206;23.550;2023-05-02T12:11:32;97425.88;;;24.05;27.17
21361;BME280;10839;43.206;23.550;2023-05-02T12:13:59;97427.38;;;23.56;27.75
21361;BME280;10839;43.206;23.550;2023-05-02T12:16:25;97403.75;;;23.45;27.65
21361;BME280;10839;43.206;23.550;2023-05-02T12:18:51;97420.25;;;23.55;27.85
21361;BME280;10839;43.206;23.550;2023-05-02T12:21:17;97419.53;;;23.18;28.15
21361;BME280;10839;43.206;23.550;2023-05-02T12:23:43;97427.31;;;23.36;27.96
21361;BME280;10839;43.206;23.550;2023-05-02T12:26:36;97419.13;;;23.51;28.02
21361;BME280;10839;43.206;23.550;2023-05-02T12:29:03;97413.78;;;24.01;27.56
21361;BME280;10839;43.206;23.550;2023-05-02T12:31:31;97406.44;;;23.35;27.66
21361;BME280;10839;43.206;23.550;2023-05-02T12:33:57;97386.72;;;23.58;27.59
21361;BME280;10839;43.206;23.550;2023-05-02T12:36:25;97387.28;;;23.55;27.54
21361;BME280;10839;43.206;23.550;2023-05-02T12:38:56;97387.16;;;23.25;27.85
21361;BME280;10839;43.206;23.550;2023-05-02T12:41:38;97383.91;;;23.33;27.52
21361;BME280;10839;43.206;23.550;2023-05-02T12:44:10;97381.25;;;23.58;27.40
21361;BME280;10839;43.206;23.550;2023-05-02T12:46:36;97381.81;;;23.70;27.28
21361;BME280;10839;43.206;23.550;2023-05-02T12:49:08;97373.06;;;24.13;26.84
21361;BME280;10839;43.206;23.550;2023-05-02T12:51:39;97369.78;;;24.11;26.83
21361;BME280;10839;43.206;23.550;2023-05-02T12:54:05;97374.66;;;23.79;27.53
21361;BME280;10839;43.206;23.550;2023-05-02T12:56:38;97364.22;;;23.66;27.39
21361;BME280;10839;43.206;23.550;2023-05-02T12:59:05;97365.78;;;23.32;27.49
21361;BME280;10839;43.206;23.550;2023-05-02T13:01:32;97368.06;;;23.70;27.62
21361;BME280;10839;43.206;23.550;2023-05-02T13:03:58;97359.25;;;23.58;27.42
21361;BME280;10839;43.206;23.550;2023-05-02T13:06:24;97349.91;;;23.49;27.41
21361;BME280;10839;43.206;23.550;2023-05-02T13:08:50;97365.31;;;23.65;27.51
21361;BME280;10839;43.206;23.550;2023-05-02T13:11:16;97352.06;;;23.37;27.62
21361;BME280;10839;43.206;23.550;2023-05-02T13:13:42;97354.31;;;23.55;27.75
21361;BME280;10839;43.206;23.550;2023-05-02T13:16:09;97344.44;;;23.69;27.78
21361;BME280;10839;43.206;23.550;2023-05-02T13:18:35;97354.38;;;24.00;27.39
21361;BME280;10839;43.206;23.550;2023-05-02T13:21:01;97348.84;;;23.75;27.32
21361;BME280;10839;43.206;23.550;2023-05-02T13:23:26;97369.44;;;23.67;27.35
21361;BME280;10839;43.206;23.550;2023-05-02T13:25:52;97355.97;;;23.81;27.83
21361;BME280;10839;43.206;23.550;2023-05-02T13:28:18;97356.53;;;23.73;26.84
21361;BME280;10839;43.206;23.550;2023-05-02T13:30:44;97351.59;;;23.80;26.93
21361;BME280;10839;43.206;23.550;2023-05-02T13:33:10;97341.69;;;23.74;27.36